createdAt,value
2019-05-23T00:01:13.694Z,10.40
2019-05-23T00:04:02.965Z,10.40
2019-05-23T00:06:35.912Z,10.20
2019-05-23T00:09:06.566Z,10.20
2019-05-23T00:11:40.585Z,10.20
2019-05-23T00:14:25.413Z,10.10
2019-05-23T00:16:56.253Z,10.00
2019-05-23T00:19:26.708Z,10.10
2019-05-23T00:21:56.019Z,10.00
2019-05-23T00:24:25.187Z,10.00
2019-05-23T00:26:54.561Z,10.00
2019-05-23T00:29:25.258Z,10.00
2019-05-23T00:31:56.221Z,9.90
2019-05-23T00:34:26.567Z,10.10
2019-05-23T00:36:55.247Z,10.20
2019-05-23T00:39:24.201Z,10.30
2019-05-23T00:41:53.772Z,10.40
2019-05-23T00:44:22.484Z,10.40
2019-05-23T00:46:52.640Z,10.20
2019-05-23T00:49:22.113Z,10.20
2019-05-23T00:51:50.699Z,10.40
2019-05-23T00:54:20.042Z,10.30
2019-05-23T00:56:50.216Z,10.20
2019-05-23T00:59:27.144Z,10.30
2019-05-23T01:01:50.109Z,10.20
2019-05-23T01:04:19.118Z,10.20
2019-05-23T01:06:49.365Z,10.20
2019-05-23T01:09:17.932Z,10.30
2019-05-23T01:11:47.643Z,10.40
2019-05-23T01:14:16.946Z,10.50
2019-05-23T01:16:45.847Z,10.40
2019-05-23T01:19:15.355Z,10.40
2019-05-23T01:21:54.614Z,10.50
2019-05-23T01:24:25.459Z,10.50
2019-05-23T01:26:54.783Z,10.60
2019-05-23T01:29:24.556Z,10.50
2019-05-23T01:31:57.798Z,10.40
2019-05-23T01:34:27.287Z,10.50
2019-05-23T01:36:56.969Z,10.40
2019-05-23T01:39:25.784Z,10.40
2019-05-23T01:41:54.625Z,10.40
2019-05-23T01:44:23.808Z,10.40
2019-05-23T01:46:53.278Z,10.30
2019-05-23T01:49:22.632Z,10.40
2019-05-23T01:51:51.196Z,10.20
2019-05-23T01:54:20.423Z,10.30
2019-05-23T01:56:50.408Z,10.30
2019-05-23T01:59:20.024Z,10.10
2019-05-23T02:01:49.257Z,10.30
2019-05-23T02:04:18.442Z,10.20
2019-05-23T02:06:47.858Z,10.20
2019-05-23T02:09:17.525Z,10.20
2019-05-23T02:11:46.586Z,10.30
2019-05-23T02:14:15.226Z,10.30
2019-05-23T02:16:44.534Z,10.30
2019-05-23T02:19:13.994Z,10.30
2019-05-23T02:21:43.141Z,10.30
2019-05-23T02:24:12.431Z,10.50
2019-05-23T02:26:41.090Z,10.30
2019-05-23T02:29:10.170Z,10.20
2019-05-23T02:31:39.081Z,10.30
2019-05-23T02:34:08.490Z,10.20
2019-05-23T02:36:37.634Z,10.30
2019-05-23T02:39:09.380Z,10.40
2019-05-23T02:41:39.695Z,10.20
2019-05-23T02:44:09.907Z,10.00
2019-05-23T02:46:42.687Z,10.10
2019-05-23T02:49:13.392Z,10.10
2019-05-23T02:51:43.474Z,10.00
2019-05-23T02:54:12.599Z,10.20
2019-05-23T02:56:42.251Z,10.20
2019-05-23T02:59:21.190Z,10.10
2019-05-23T03:02:22.767Z,10.10
2019-05-23T03:04:51.528Z,10.10
2019-05-23T03:07:23.063Z,10.10
2019-05-23T03:09:51.873Z,10.10
2019-05-23T03:12:25.108Z,10.20
2019-05-23T03:14:53.331Z,10.30
2019-05-23T03:17:25.182Z,10.20
2019-05-23T03:20:01.442Z,10.10
2019-05-23T03:22:46.302Z,10.10
2019-05-23T03:25:30.413Z,10.00
2019-05-23T03:28:00.984Z,9.90
2019-05-23T03:30:31.367Z,9.90
2019-05-23T03:33:01.583Z,10.00
2019-05-23T03:35:32.127Z,9.90
2019-05-23T03:38:01.534Z,9.80
2019-05-23T03:40:30.990Z,9.70
2019-05-23T03:42:59.698Z,10.00
2019-05-23T03:45:32.619Z,10.20
2019-05-23T03:48:02.050Z,10.20
2019-05-23T03:50:32.529Z,10.30
2019-05-23T03:53:01.750Z,10.30
2019-05-23T03:55:30.726Z,10.20
2019-05-23T03:58:00.876Z,10.30
2019-05-23T04:00:37.845Z,10.50
2019-05-23T04:03:07.690Z,10.50
2019-05-23T04:05:37.479Z,10.40
2019-05-23T04:08:07.465Z,10.50
2019-05-23T04:10:36.601Z,10.70
2019-05-23T04:13:06.209Z,10.80
2019-05-23T04:15:35.333Z,10.80
2019-05-23T04:18:04.036Z,10.70
2019-05-23T04:20:32.778Z,10.60
2019-05-23T04:23:01.874Z,10.80
2019-05-23T04:25:30.445Z,10.90
2019-05-23T04:27:59.641Z,11.20
2019-05-23T04:30:28.376Z,10.90
2019-05-23T04:32:57.107Z,10.90
2019-05-23T04:35:26.018Z,11.10
2019-05-23T04:37:54.791Z,11.20
2019-05-23T04:40:23.727Z,11.30
2019-05-23T04:42:52.296Z,11.40
2019-05-23T04:45:21.498Z,11.90
2019-05-23T04:47:50.071Z,12.20
2019-05-23T04:50:18.824Z,12.20
2019-05-23T04:52:48.580Z,12.50
2019-05-23T04:55:19.088Z,12.70
2019-05-23T04:57:47.913Z,13.20
2019-05-23T05:00:19.120Z,13.60
2019-05-23T05:02:48.122Z,13.90
2019-05-23T05:05:18.027Z,14.00
2019-05-23T05:07:46.846Z,14.60
2019-05-23T05:10:18.566Z,14.80
2019-05-23T05:12:47.789Z,14.40
2019-05-23T05:15:17.457Z,14.80
2019-05-23T05:17:46.143Z,15.30
2019-05-23T05:20:15.141Z,15.80
2019-05-23T05:22:44.252Z,15.90
2019-05-23T05:25:14.105Z,16.70
2019-05-23T05:27:43.461Z,16.30
2019-05-23T05:30:12.571Z,16.20
2019-05-23T05:32:45.267Z,16.30
2019-05-23T05:35:11.951Z,16.00
2019-05-23T05:37:40.594Z,16.20
2019-05-23T05:40:09.799Z,16.00
2019-05-23T05:42:41.232Z,16.00
2019-05-23T05:45:10.383Z,16.70
2019-05-23T05:47:39.378Z,17.20
2019-05-23T05:50:09.174Z,18.10
2019-05-23T05:52:39.011Z,17.80
2019-05-23T05:55:08.273Z,18.10
2019-05-23T05:57:37.114Z,18.40
2019-05-23T06:00:15.469Z,18.40
2019-05-23T06:03:00.826Z,19.50
2019-05-23T06:05:25.695Z,19.00
2019-05-23T06:07:54.855Z,18.50
2019-05-23T06:10:23.795Z,18.10
2019-05-23T06:12:52.491Z,17.80
2019-05-23T06:15:22.689Z,18.30
2019-05-23T06:17:51.327Z,18.40
2019-05-23T06:20:20.043Z,18.40
2019-05-23T06:22:48.761Z,17.90
2019-05-23T06:25:17.464Z,19.00
2019-05-23T06:27:46.584Z,18.60
2019-05-23T06:30:18.421Z,17.60
2019-05-23T06:32:47.046Z,18.70
2019-05-23T06:35:16.093Z,19.20
2019-05-23T06:37:45.411Z,20.00
2019-05-23T06:40:14.967Z,19.60
2019-05-23T06:42:43.702Z,19.40
2019-05-23T06:45:13.473Z,19.60
2019-05-23T06:47:42.243Z,20.50
2019-05-23T06:50:19.332Z,21.50
2019-05-23T06:52:47.877Z,21.50
2019-05-23T06:55:16.585Z,21.00
2019-05-23T06:57:45.179Z,20.60
2019-05-23T07:00:15.810Z,20.40
2019-05-23T07:02:45.005Z,19.90
2019-05-23T07:05:15.269Z,20.90
2019-05-23T07:07:44.084Z,22.70
2019-05-23T07:10:13.264Z,23.50
2019-05-23T07:12:42.139Z,23.50
2019-05-23T07:15:11.200Z,22.70
2019-05-23T07:17:39.783Z,22.50
2019-05-23T07:20:09.290Z,22.10
2019-05-23T07:22:37.916Z,23.10
2019-05-23T07:25:07.472Z,22.50
2019-05-23T07:27:36.682Z,22.60
2019-05-23T07:30:19.998Z,23.30
2019-05-23T07:32:48.586Z,23.20
2019-05-23T07:35:17.348Z,24.10
2019-05-23T07:37:46.082Z,23.40
2019-05-23T07:40:15.061Z,22.70
2019-05-23T07:42:43.762Z,23.20
2019-05-23T07:45:17.479Z,24.50
2019-05-23T07:47:46.094Z,24.40
2019-05-23T07:50:15.310Z,22.80
2019-05-23T07:52:44.277Z,22.30
2019-05-23T07:55:17.340Z,23.30
2019-05-23T07:57:45.968Z,24.10
2019-05-23T08:00:16.436Z,24.70
2019-05-23T08:02:48.478Z,24.70
2019-05-23T08:05:17.413Z,25.40
2019-05-23T08:07:47.404Z,25.40
2019-05-23T08:10:32.588Z,24.30
2019-05-23T08:12:46.675Z,25.30
2019-05-23T08:15:17.675Z,23.90
2019-05-23T08:17:46.460Z,24.80
2019-05-23T08:20:16.153Z,24.90
2019-05-23T08:22:45.629Z,26.10
2019-05-23T08:25:14.343Z,25.50
2019-05-23T08:27:43.087Z,26.40
2019-05-23T08:30:11.951Z,26.00
2019-05-23T08:32:40.813Z,25.10
2019-05-23T08:35:09.948Z,24.80
2019-05-23T08:37:39.820Z,24.70
2019-05-23T08:40:09.808Z,24.20
2019-05-23T08:42:38.707Z,23.20
2019-05-23T08:45:09.255Z,22.80
2019-05-23T08:47:37.894Z,24.00
2019-05-23T08:50:09.350Z,25.30
2019-05-23T08:52:38.057Z,26.70
2019-05-23T08:55:21.458Z,26.80
2019-05-23T08:57:50.835Z,26.10
2019-05-23T09:00:20.657Z,27.30
2019-05-23T09:02:49.369Z,27.70
2019-05-23T09:05:19.164Z,27.20
2019-05-23T09:07:48.155Z,26.70
2019-05-23T09:10:17.883Z,27.30
2019-05-23T09:12:46.727Z,26.70
2019-05-23T09:15:15.432Z,27.30
2019-05-23T09:17:52.995Z,26.30
2019-05-23T09:20:16.325Z,26.90
2019-05-23T09:22:44.881Z,26.20
2019-05-23T09:25:14.311Z,24.20
2019-05-23T09:27:42.941Z,24.30
2019-05-23T09:30:12.143Z,26.00
2019-05-23T09:32:41.703Z,25.20
2019-05-23T09:35:21.033Z,25.80
2019-05-23T09:37:42.393Z,26.80
2019-05-23T09:40:11.356Z,26.60
2019-05-23T09:42:40.064Z,26.60
2019-05-23T09:45:08.761Z,26.30
2019-05-23T09:47:37.457Z,26.70
2019-05-23T09:50:08.721Z,26.30
2019-05-23T09:52:37.368Z,27.10
2019-05-23T09:55:07.011Z,27.50
2019-05-23T09:57:35.629Z,27.90
2019-05-23T10:00:10.983Z,26.80
2019-05-23T10:02:39.529Z,27.50
2019-05-23T10:05:10.772Z,27.90
2019-05-23T10:07:39.569Z,28.00
2019-05-23T10:10:09.356Z,28.00
2019-05-23T10:12:38.169Z,28.00
2019-05-23T10:15:10.471Z,27.00
2019-05-23T10:17:39.120Z,28.10
2019-05-23T10:20:08.215Z,27.80
2019-05-23T10:22:36.786Z,27.80
2019-05-23T10:25:08.676Z,28.50
2019-05-23T10:27:37.322Z,28.40
2019-05-23T10:30:09.762Z,28.40
2019-05-23T10:32:38.495Z,27.40
2019-05-23T10:35:08.012Z,28.00
2019-05-23T10:37:36.580Z,28.30
2019-05-23T10:40:05.992Z,27.90
2019-05-23T10:42:34.720Z,27.80
2019-05-23T10:45:04.310Z,27.30
2019-05-23T10:47:32.925Z,27.40
2019-05-23T10:50:07.680Z,26.10
2019-05-23T10:52:33.473Z,26.80
2019-05-23T10:55:02.224Z,26.40
2019-05-23T10:57:31.266Z,26.70
2019-05-23T10:59:59.834Z,25.90
2019-05-23T11:02:28.726Z,26.20
2019-05-23T11:04:57.614Z,26.40
2019-05-23T11:07:26.726Z,26.10
2019-05-23T11:09:55.350Z,26.30
2019-05-23T11:12:24.398Z,25.50
2019-05-23T11:14:53.495Z,25.20
2019-05-23T11:17:22.208Z,25.70
2019-05-23T11:19:51.050Z,25.90
2019-05-23T11:22:20.412Z,26.50
2019-05-23T11:24:49.052Z,26.30
2019-05-23T11:27:18.592Z,25.70
2019-05-23T11:29:47.332Z,25.40
2019-05-23T11:32:20.105Z,23.90
2019-05-23T11:34:46.909Z,24.90
2019-05-23T11:37:15.622Z,26.00
2019-05-23T11:39:49.443Z,25.90
2019-05-23T11:42:14.473Z,25.90
2019-05-23T11:44:43.081Z,26.00
2019-05-23T11:47:12.352Z,26.40
2019-05-23T11:49:41.527Z,26.10
2019-05-23T11:52:10.848Z,27.00
2019-05-23T11:54:40.029Z,26.10
2019-05-23T11:57:09.107Z,26.80
2019-05-23T11:59:38.130Z,27.10
2019-05-23T12:02:14.052Z,27.80
2019-05-23T12:04:42.641Z,27.20
2019-05-23T12:07:12.902Z,28.30
2019-05-23T12:09:41.622Z,28.00
2019-05-23T12:12:10.364Z,27.60
2019-05-23T12:14:40.150Z,27.90
2019-05-23T12:17:08.990Z,27.70
2019-05-23T12:19:37.646Z,26.90
2019-05-23T12:22:06.348Z,26.10
2019-05-23T12:24:35.821Z,25.70
2019-05-23T12:27:05.082Z,26.90
2019-05-23T12:29:34.331Z,27.50
2019-05-23T12:32:04.290Z,27.20
2019-05-23T12:34:32.863Z,27.30
2019-05-23T12:37:18.089Z,28.20
2019-05-23T12:39:31.959Z,27.70
2019-05-23T12:42:00.541Z,28.00
2019-05-23T12:44:29.186Z,26.20
2019-05-23T12:46:59.384Z,26.10
2019-05-23T12:49:35.516Z,25.90
2019-05-23T12:52:05.879Z,26.00
2019-05-23T12:54:34.537Z,27.30
2019-05-23T12:57:03.170Z,27.00
2019-05-23T12:59:32.016Z,26.50
2019-05-23T13:02:01.794Z,27.10
2019-05-23T13:04:30.689Z,27.60
2019-05-23T13:06:59.494Z,26.80
2019-05-23T13:09:28.193Z,26.70
2019-05-23T13:11:56.777Z,27.20
2019-05-23T13:14:25.621Z,26.10
2019-05-23T13:16:54.958Z,26.10
2019-05-23T13:19:23.977Z,26.40
2019-05-23T13:21:52.610Z,25.80
2019-05-23T13:24:21.495Z,24.50
2019-05-23T13:26:50.294Z,24.90
2019-05-23T13:29:18.916Z,24.80
2019-05-23T13:31:47.625Z,25.70
2019-05-23T13:34:16.149Z,25.10
2019-05-23T13:36:44.827Z,25.50
2019-05-23T13:39:13.451Z,25.10
2019-05-23T13:41:42.132Z,25.10
2019-05-23T13:44:29.695Z,25.20
2019-05-23T13:46:40.944Z,25.80
2019-05-23T13:49:09.577Z,24.90
2019-05-23T13:51:38.384Z,24.70
2019-05-23T13:54:07.014Z,24.90
2019-05-23T13:56:35.701Z,25.70
2019-05-23T13:59:04.456Z,24.80
2019-05-23T14:01:33.465Z,25.10
2019-05-23T14:04:01.986Z,24.90
2019-05-23T14:06:30.643Z,24.90
2019-05-23T14:08:59.179Z,24.20
2019-05-23T14:11:27.899Z,24.30
2019-05-23T14:14:00.237Z,24.20
2019-05-23T14:16:28.433Z,24.90
2019-05-23T14:18:56.988Z,24.50
2019-05-23T14:21:26.045Z,25.10
2019-05-23T14:23:54.669Z,25.00
2019-05-23T14:26:23.682Z,24.20
2019-05-23T14:28:52.331Z,23.70
2019-05-23T14:31:20.926Z,23.20
2019-05-23T14:33:57.000Z,22.60
2019-05-23T14:36:45.166Z,22.60
2019-05-23T14:39:15.423Z,22.80
2019-05-23T14:41:45.900Z,22.90
2019-05-23T14:44:14.488Z,23.00
2019-05-23T14:46:53.443Z,22.70
2019-05-23T14:49:38.644Z,22.60
2019-05-23T14:52:09.168Z,22.70
2019-05-23T14:54:39.402Z,22.80
2019-05-23T14:57:08.520Z,23.00
2019-05-23T14:59:37.171Z,23.10
2019-05-23T15:02:07.539Z,22.40
2019-05-23T15:04:36.134Z,22.20
2019-05-23T15:07:05.232Z,22.10
2019-05-23T15:09:34.047Z,22.40
2019-05-23T15:12:02.671Z,22.10
2019-05-23T15:14:31.254Z,21.90
2019-05-23T15:16:59.873Z,21.80
2019-05-23T15:19:41.882Z,22.20
2019-05-23T15:21:58.796Z,22.20
2019-05-23T15:24:27.920Z,22.00
2019-05-23T15:26:56.484Z,22.10
2019-05-23T15:29:29.021Z,21.90
2019-05-23T15:32:02.467Z,22.10
2019-05-23T15:34:25.675Z,21.90
2019-05-23T15:36:54.306Z,21.70
2019-05-23T15:39:23.542Z,22.10
2019-05-23T15:41:52.194Z,21.40
2019-05-23T15:44:27.062Z,21.10
2019-05-23T15:46:51.046Z,21.30
2019-05-23T15:49:19.766Z,21.40
2019-05-23T15:51:53.783Z,21.30
2019-05-23T15:54:24.845Z,21.40
2019-05-23T15:56:55.018Z,21.10
2019-05-23T15:59:37.183Z,21.10
2019-05-23T16:02:16.049Z,21.20
2019-05-23T16:04:44.966Z,21.10
2019-05-23T16:07:13.934Z,20.90
2019-05-23T16:09:42.483Z,20.90
2019-05-23T16:12:11.959Z,20.60
2019-05-23T16:14:40.694Z,20.90
2019-05-23T16:17:09.392Z,20.80
2019-05-23T16:19:37.952Z,20.80
2019-05-23T16:22:06.693Z,20.70
2019-05-23T16:24:35.582Z,20.90
2019-05-23T16:27:05.761Z,21.00
2019-05-23T16:29:34.470Z,20.60
2019-05-23T16:32:03.148Z,20.40
2019-05-23T16:34:31.773Z,20.20
2019-05-23T16:37:00.412Z,20.00
2019-05-23T16:39:45.952Z,20.10
2019-05-23T16:41:59.629Z,20.10
2019-05-23T16:44:28.242Z,19.90
2019-05-23T16:46:56.941Z,19.80
2019-05-23T16:49:25.500Z,19.80
2019-05-23T16:51:54.152Z,19.90
2019-05-23T16:54:24.346Z,20.00
2019-05-23T16:56:54.635Z,20.10
2019-05-23T16:59:25.000Z,20.00
2019-05-23T17:02:13.159Z,20.10
2019-05-23T17:05:09.402Z,19.70
2019-05-23T17:07:35.562Z,19.60
2019-05-23T17:10:09.536Z,19.80
2019-05-23T17:12:45.751Z,19.80
2019-05-23T17:15:19.001Z,19.90
2019-05-23T17:18:04.303Z,19.70
2019-05-23T17:20:50.671Z,19.70
2019-05-23T17:23:33.364Z,19.60
2019-05-23T17:26:03.797Z,19.50
2019-05-23T17:28:37.185Z,19.60
2019-05-23T17:31:07.628Z,19.70
2019-05-23T17:33:37.232Z,19.60
2019-05-23T17:36:06.087Z,19.50
2019-05-23T17:38:34.747Z,19.50
2019-05-23T17:41:03.530Z,19.30
2019-05-23T17:43:32.181Z,19.40
2019-05-23T17:46:00.824Z,19.30
2019-05-23T17:48:29.369Z,19.30
2019-05-23T17:50:58.110Z,19.20
2019-05-23T17:53:27.201Z,19.20
2019-05-23T17:55:56.549Z,19.20
2019-05-23T17:58:25.314Z,19.20
2019-05-23T18:00:54.642Z,19.10
2019-05-23T18:03:23.593Z,19.10
2019-05-23T18:05:52.247Z,18.90
2019-05-23T18:08:21.135Z,18.90
2019-05-23T18:10:50.138Z,18.80
2019-05-23T18:13:19.642Z,18.90
2019-05-23T18:15:48.525Z,18.90
2019-05-23T18:18:17.755Z,18.80
2019-05-23T18:20:46.354Z,18.80
2019-05-23T18:23:15.810Z,18.70
2019-05-23T18:25:44.484Z,18.60
2019-05-23T18:28:14.949Z,18.50
2019-05-23T18:30:45.439Z,18.50
2019-05-23T18:33:15.926Z,18.40
2019-05-23T18:35:44.749Z,18.40
2019-05-23T18:38:13.393Z,18.40
2019-05-23T18:40:42.161Z,18.40
2019-05-23T18:43:11.054Z,18.40
2019-05-23T18:45:40.867Z,18.30
2019-05-23T18:48:09.501Z,18.30
2019-05-23T18:50:38.639Z,18.30
2019-05-23T18:53:08.554Z,18.30
2019-05-23T18:55:37.423Z,18.10
2019-05-23T18:58:06.325Z,18.00
2019-05-23T19:00:55.230Z,18.00
2019-05-23T19:06:23.882Z,17.90
2019-05-23T19:08:52.879Z,17.80
2019-05-23T19:14:11.785Z,17.80
2019-05-23T19:16:40.640Z,17.80
2019-05-23T19:19:09.485Z,17.80
2019-05-23T19:21:38.817Z,17.70
2019-05-23T19:24:08.275Z,17.60
2019-05-23T19:26:37.009Z,17.60
2019-05-23T19:29:06.627Z,17.60
2019-05-23T19:31:36.637Z,17.50
2019-05-23T19:34:05.986Z,17.50
2019-05-23T19:36:35.875Z,17.40
2019-05-23T19:39:06.186Z,17.40
2019-05-23T19:41:37.861Z,17.40
2019-05-23T19:44:05.843Z,17.30
2019-05-23T19:46:34.913Z,17.30
2019-05-23T19:49:03.964Z,17.20
2019-05-23T19:51:32.972Z,17.10
2019-05-23T19:54:01.937Z,17.10
2019-05-23T19:56:30.768Z,17.10
2019-05-23T19:59:01.170Z,17.10
2019-05-23T20:01:32.376Z,17.10
2019-05-23T20:04:08.734Z,17.10
2019-05-23T20:06:37.419Z,17.00
2019-05-23T20:09:10.366Z,17.00
2019-05-23T20:11:53.298Z,16.90
2019-05-23T20:14:09.592Z,16.90
2019-05-23T20:16:38.296Z,16.90
2019-05-23T20:19:07.012Z,16.80
2019-05-23T20:21:35.636Z,16.80
2019-05-23T20:24:04.524Z,16.80
2019-05-23T20:26:33.145Z,16.70
2019-05-23T20:29:03.410Z,16.50
2019-05-23T20:31:32.311Z,16.50
2019-05-23T20:34:00.946Z,16.60
2019-05-23T20:36:29.663Z,16.50
2019-05-23T20:38:58.246Z,16.40
2019-05-23T20:41:27.395Z,16.40
2019-05-23T20:43:55.950Z,16.40
2019-05-23T20:46:24.844Z,16.40
2019-05-23T20:48:53.494Z,16.30
2019-05-23T20:51:22.335Z,16.20
2019-05-23T20:53:51.185Z,16.10
2019-05-23T20:56:19.824Z,16.10
2019-05-23T20:58:48.573Z,16.10
2019-05-23T21:01:18.759Z,16.00
2019-05-23T21:03:47.995Z,15.90
2019-05-23T21:06:16.703Z,15.60
2019-05-23T21:08:45.447Z,15.80
2019-05-23T21:11:13.992Z,16.00
2019-05-23T21:13:42.625Z,15.80
2019-05-23T21:16:11.191Z,15.50
2019-05-23T21:18:39.766Z,15.20
2019-05-23T21:21:08.415Z,15.50
2019-05-23T21:23:36.994Z,15.60
2019-05-23T21:26:06.435Z,15.60
2019-05-23T21:28:35.138Z,15.50
2019-05-23T21:31:05.658Z,15.30
2019-05-23T21:33:34.210Z,15.30
2019-05-23T21:36:02.992Z,15.10
2019-05-23T21:38:31.708Z,14.90
2019-05-23T21:41:03.161Z,14.90
2019-05-23T21:43:30.567Z,15.00
2019-05-23T21:45:59.119Z,14.90
2019-05-23T21:48:27.703Z,15.00
2019-05-23T21:50:56.264Z,14.90
2019-05-23T21:53:24.834Z,14.90
2019-05-23T21:55:53.437Z,14.80
2019-05-23T21:58:22.011Z,14.90
2019-05-23T22:01:07.209Z,14.60
2019-05-23T22:03:44.546Z,14.60
2019-05-23T22:06:14.932Z,14.70
2019-05-23T22:08:44.150Z,14.70
2019-05-23T22:11:13.829Z,14.90
2019-05-23T22:13:42.941Z,14.70
2019-05-23T22:16:11.440Z,14.60
2019-05-23T22:18:40.155Z,14.50
2019-05-23T22:21:08.957Z,14.70
2019-05-23T22:23:38.185Z,14.60
2019-05-23T22:26:07.405Z,14.50
2019-05-23T22:28:36.203Z,14.50
2019-05-23T22:31:04.911Z,14.40
2019-05-23T22:33:41.258Z,14.20
2019-05-23T22:36:09.955Z,14.30
2019-05-23T22:38:38.505Z,14.30
2019-05-23T22:41:07.223Z,14.30
2019-05-23T22:43:35.775Z,14.10
2019-05-23T22:46:04.667Z,14.10
2019-05-23T22:48:34.143Z,14.10
2019-05-23T22:51:02.704Z,14.20
2019-05-23T22:53:31.332Z,14.10
2019-05-23T22:55:59.920Z,14.10
2019-05-23T22:58:28.480Z,14.10
2019-05-23T23:00:57.037Z,14.10
2019-05-23T23:03:25.510Z,13.90
2019-05-23T23:05:54.177Z,14.10
2019-05-23T23:08:23.821Z,14.00
2019-05-23T23:10:52.338Z,14.10
2019-05-23T23:13:36.092Z,14.20
2019-05-23T23:15:51.423Z,14.20
2019-05-23T23:18:20.049Z,14.20
2019-05-23T23:20:48.557Z,14.10
2019-05-23T23:23:17.116Z,14.10
2019-05-23T23:25:45.749Z,14.00
2019-05-23T23:28:14.255Z,14.10
2019-05-23T23:30:44.750Z,14.30
2019-05-23T23:33:13.487Z,14.20
2019-05-23T23:35:42.144Z,14.20
2019-05-23T23:38:10.840Z,14.20
2019-05-23T23:40:39.482Z,14.20
2019-05-23T23:43:08.116Z,14.30
2019-05-23T23:45:54.983Z,14.20
2019-05-23T23:48:40.881Z,14.00
2019-05-23T23:51:27.366Z,13.70
2019-05-23T23:54:13.877Z,13.70
2019-05-23T23:57:00.552Z,13.80
2019-05-23T23:59:28.708Z,13.60
